Time;durP1;ratioP1;P1;durP2;ratioP2;P2;SDS_P1;SDS_P2;PMS_P1;PMS_P2;Temp;Humidity;BMP_temperature;BMP_pressure;BME280_temperature;BME280_humidity;BME280_pressure;Samples;Min_cycle;Max_cycle;Signal;HPM_P1;HPM_P2
2023/09/09 00:01:41;;;;;;;10.93;10.43;;;;;;;;;;5085950;28;20104;-61
2023/09/09 00:04:06;;;;;;;10.43;9.93;;;;;;;;;;5087383;28;20099;-62
2023/09/09 00:06:31;;;;;;;10.70;10.20;;;;;;;;;;5081258;28;20074;-62
2023/09/09 00:08:57;;;;;;;10.50;10.00;;;;;;;;;;5092652;28;20111;-61
2023/09/09 00:11:22;;;;;;;10.85;10.35;;;;;;;;;;5087925;28;20024;-62
2023/09/09 00:13:47;;;;;;;10.68;10.18;;;;;;;;;;5085221;28;20048;-62
2023/09/09 00:16:12;;;;;;;10.75;10.25;;;;;;;;;;5084998;28;20031;-61
2023/09/09 00:18:38;;;;;;;10.70;10.20;;;;;;;;;;5084287;28;20087;-62
2023/09/09 00:21:05;;;;;;;10.95;10.45;;;;;;;;;;5088763;28;20057;-62
2023/09/09 00:23:30;;;;;;;10.63;10.13;;;;;;;;;;5085848;28;20020;-63
2023/09/09 00:25:55;;;;;;;10.60;10.10;;;;;;;;;;5086246;28;20031;-61
2023/09/09 00:28:21;;;;;;;10.52;10.02;;;;;;;;;;5087589;28;20020;-61
2023/09/09 00:30:46;;;;;;;10.90;10.40;;;;;;;;;;5080381;28;20094;-62
2023/09/09 00:33:12;;;;;;;10.50;10.00;;;;;;;;;;5091376;28;20425;-61
2023/09/09 00:35:38;;;;;;;10.65;10.15;;;;;;;;;;5084703;28;20024;-62
2023/09/09 00:38:04;;;;;;;10.68;10.18;;;;;;;;;;5084488;28;20078;-61
2023/09/09 00:40:29;;;;;;;10.68;10.18;;;;;;;;;;5083913;28;20016;-62
2023/09/09 00:42:54;;;;;;;10.73;10.23;;;;;;;;;;5087253;28;20024;-62
2023/09/09 00:45:20;;;;;;;10.90;10.40;;;;;;;;;;5085243;28;20016;-62
2023/09/09 00:47:45;;;;;;;10.73;10.23;;;;;;;;;;5087596;28;20123;-61
2023/09/09 00:50:13;;;;;;;10.20;9.75;;;;;;;;;;5086590;28;20063;-61
2023/09/09 00:52:39;;;;;;;10.75;10.25;;;;;;;;;;5088896;28;20020;-61
2023/09/09 00:55:05;;;;;;;10.00;9.60;;;;;;;;;;5088860;28;20049;-61
2023/09/09 00:57:31;;;;;;;10.45;9.95;;;;;;;;;;5088247;28;20040;-62
2023/09/09 00:59:57;;;;;;;10.70;10.20;;;;;;;;;;5085411;28;20082;-61
2023/09/09 01:02:22;;;;;;;10.50;10.00;;;;;;;;;;5078446;28;20077;-61
2023/09/09 01:04:49;;;;;;;10.45;9.95;;;;;;;;;;5082681;28;20055;-62
2023/09/09 01:07:14;;;;;;;10.75;10.25;;;;;;;;;;5088136;28;20020;-61
2023/09/09 01:09:40;;;;;;;10.60;10.10;;;;;;;;;;5080218;28;20032;-61
2023/09/09 01:12:11;;;;;;;10.90;10.40;;;;;;;;;;5086678;28;20024;-61
2023/09/09 01:14:36;;;;;;;10.60;10.10;;;;;;;;;;5085696;28;20020;-64
2023/09/09 01:17:02;;;;;;;10.88;10.38;;;;;;;;;;5088989;28;20023;-62
2023/09/09 01:19:31;;;;;;;10.15;9.73;;;;;;;;;;5088778;28;20079;-61
2023/09/09 01:22:02;;;;;;;10.40;9.90;;;;;;;;;;5078752;28;20040;-63
2023/09/09 01:24:27;;;;;;;10.75;10.25;;;;;;;;;;5088721;28;20039;-61
2023/09/09 01:26:53;;;;;;;10.60;10.10;;;;;;;;;;5088497;28;20479;-61
2023/09/09 01:29:19;;;;;;;10.50;10.00;;;;;;;;;;5092142;28;20034;-63
2023/09/09 01:31:44;;;;;;;10.45;9.95;;;;;;;;;;5091301;28;20020;-61
2023/09/09 01:34:09;;;;;;;10.52;10.02;;;;;;;;;;5083890;28;20032;-62
2023/09/09 01:36:35;;;;;;;10.60;10.10;;;;;;;;;;5081332;28;20058;-61
2023/09/09 01:39:00;;;;;;;10.60;10.10;;;;;;;;;;5086592;28;20020;-62
2023/09/09 01:41:25;;;;;;;11.10;10.60;;;;;;;;;;5080358;28;20047;-62
2023/09/09 01:43:51;;;;;;;10.88;10.38;;;;;;;;;;5086088;28;20024;-62
2023/09/09 01:46:16;;;;;;;10.73;10.23;;;;;;;;;;5082822;28;20024;-63
2023/09/09 01:48:41;;;;;;;10.80;10.30;;;;;;;;;;5085082;28;20031;-62
2023/09/09 01:51:07;;;;;;;10.52;10.02;;;;;;;;;;5090287;28;20028;-62
2023/09/09 01:53:32;;;;;;;10.50;10.00;;;;;;;;;;5079617;28;20020;-62
2023/09/09 01:56:00;;;;;;;10.45;9.95;;;;;;;;;;5079443;28;20115;-62
2023/09/09 01:58:26;;;;;;;10.38;9.88;;;;;;;;;;5080410;28;20024;-62
2023/09/09 02:00:51;;;;;;;10.65;10.15;;;;;;;;;;5078441;28;20356;-63
2023/09/09 02:03:17;;;;;;;10.40;9.90;;;;;;;;;;5083754;28;20024;-62
2023/09/09 02:05:42;;;;;;;10.50;10.00;;;;;;;;;;5086818;28;20407;-61
2023/09/09 02:08:07;;;;;;;10.80;10.30;;;;;;;;;;5084311;28;20367;-61
2023/09/09 02:10:32;;;;;;;10.90;10.40;;;;;;;;;;5080906;28;20031;-61
2023/09/09 02:12:58;;;;;;;10.68;10.18;;;;;;;;;;5081855;28;20078;-61
2023/09/09 02:15:23;;;;;;;10.68;10.18;;;;;;;;;;5082129;28;20035;-62
2023/09/09 02:17:49;;;;;;;10.70;10.20;;;;;;;;;;5085253;28;20024;-61
2023/09/09 02:20:14;;;;;;;10.95;10.45;;;;;;;;;;5084651;28;20024;-61
2023/09/09 02:22:39;;;;;;;10.43;9.93;;;;;;;;;;5084050;28;20013;-62
2023/09/09 02:25:07;;;;;;;10.45;9.95;;;;;;;;;;5085800;28;20067;-61
2023/09/09 02:27:32;;;;;;;10.40;9.90;;;;;;;;;;5081009;28;20526;-61
2023/09/09 02:29:57;;;;;;;10.63;10.13;;;;;;;;;;5086244;28;20047;-62
2023/09/09 02:32:23;;;;;;;10.85;10.35;;;;;;;;;;5080598;28;20030;-62
2023/09/09 02:34:48;;;;;;;10.82;10.32;;;;;;;;;;5085855;28;20035;-62
2023/09/09 02:37:17;;;;;;;10.80;10.30;;;;;;;;;;5084514;28;20476;-63
2023/09/09 02:39:43;;;;;;;10.70;10.20;;;;;;;;;;5086333;28;20024;-62
2023/09/09 02:42:13;;;;;;;10.60;10.10;;;;;;;;;;5089358;28;20031;-62
2023/09/09 02:44:38;;;;;;;10.82;10.32;;;;;;;;;;5085131;28;20502;-62
2023/09/09 02:47:03;;;;;;;10.80;10.30;;;;;;;;;;5083758;28;20059;-63
2023/09/09 02:49:29;;;;;;;10.75;10.25;;;;;;;;;;5086572;28;20024;-61
2023/09/09 02:51:54;;;;;;;10.65;10.15;;;;;;;;;;5082186;28;20028;-61
2023/09/09 02:54:19;;;;;;;10.65;10.15;;;;;;;;;;5087729;28;20031;-62
2023/09/09 02:56:44;;;;;;;10.85;10.35;;;;;;;;;;5088128;28;20185;-63
2023/09/09 02:59:10;;;;;;;10.98;10.48;;;;;;;;;;5083729;28;24489;-61
2023/09/09 03:01:35;;;;;;;10.85;10.35;;;;;;;;;;5078033;28;20035;-61
2023/09/09 03:04:00;;;;;;;10.60;10.10;;;;;;;;;;5081939;28;20040;-62
2023/09/09 03:06:26;;;;;;;11.25;10.75;;;;;;;;;;5088547;28;20035;-62
2023/09/09 03:08:51;;;;;;;11.30;10.80;;;;;;;;;;5084426;28;20024;-61
2023/09/09 03:11:16;;;;;;;10.95;10.45;;;;;;;;;;5085580;28;20115;-61
2023/09/09 03:13:42;;;;;;;10.80;10.30;;;;;;;;;;5092122;28;20023;-62
2023/09/09 03:16:08;;;;;;;11.05;10.55;;;;;;;;;;5090356;28;20036;-62
2023/09/09 03:18:33;;;;;;;11.10;10.60;;;;;;;;;;5093264;28;20017;-61
2023/09/09 03:20:58;;;;;;;10.77;10.27;;;;;;;;;;5088962;28;20028;-61
2023/09/09 03:23:24;;;;;;;10.73;10.23;;;;;;;;;;5080388;28;20016;-61
2023/09/09 03:25:49;;;;;;;10.60;10.10;;;;;;;;;;5084916;28;20026;-62
2023/09/09 03:28:14;;;;;;;11.18;10.68;;;;;;;;;;5081587;28;20020;-62
2023/09/09 03:30:53;;;;;;;10.85;10.35;;;;;;;;;;5083991;28;20027;-62
2023/09/09 03:33:18;;;;;;;10.60;10.10;;;;;;;;;;5085580;28;20035;-61
2023/09/09 03:35:43;;;;;;;10.85;10.35;;;;;;;;;;5091000;28;20539;-61
2023/09/09 03:38:09;;;;;;;10.73;10.23;;;;;;;;;;5084447;28;20099;-61
2023/09/09 03:40:34;;;;;;;11.00;10.50;;;;;;;;;;5084124;28;20012;-62
2023/09/09 03:42:59;;;;;;;11.10;10.60;;;;;;;;;;5082810;28;20016;-62
2023/09/09 03:45:25;;;;;;;10.80;10.30;;;;;;;;;;5088043;28;20107;-62
2023/09/09 03:47:50;;;;;;;10.68;10.18;;;;;;;;;;5084580;28;20028;-61
2023/09/09 03:50:15;;;;;;;10.60;10.10;;;;;;;;;;5088934;28;20028;-61
2023/09/09 03:52:41;;;;;;;10.57;10.07;;;;;;;;;;5090793;28;20054;-62
2023/09/09 03:55:06;;;;;;;10.65;10.15;;;;;;;;;;5089165;28;20440;-61
2023/09/09 03:57:31;;;;;;;10.80;10.30;;;;;;;;;;5089575;28;20112;-61
2023/09/09 03:59:59;;;;;;;10.55;10.05;;;;;;;;;;5088095;28;20027;-62
2023/09/09 04:02:24;;;;;;;10.50;10.00;;;;;;;;;;5089750;28;20049;-62
2023/09/09 04:04:49;;;;;;;10.95;10.45;;;;;;;;;;5089136;28;20453;-62
2023/09/09 04:07:15;;;;;;;11.40;10.90;;;;;;;;;;5085839;28;20032;-61
2023/09/09 04:09:41;;;;;;;10.80;10.30;;;;;;;;;;5088616;28;20059;-61
2023/09/09 04:12:07;;;;;;;11.02;10.52;;;;;;;;;;5087474;28;20519;-61
2023/09/09 04:14:32;;;;;;;10.45;9.95;;;;;;;;;;5083891;28;20491;-61
2023/09/09 04:16:57;;;;;;;10.93;10.43;;;;;;;;;;5087296;28;20049;-61
2023/09/09 04:19:23;;;;;;;11.05;10.55;;;;;;;;;;5088168;28;20016;-62
2023/09/09 04:21:51;;;;;;;10.55;10.05;;;;;;;;;;5086261;28;20072;-62
2023/09/09 04:24:16;;;;;;;10.50;10.00;;;;;;;;;;5081898;28;20124;-61
2023/09/09 04:26:41;;;;;;;10.93;10.43;;;;;;;;;;5082620;28;20511;-62
2023/09/09 04:29:07;;;;;;;10.75;10.25;;;;;;;;;;5089091;28;20027;-62
2023/09/09 04:31:32;;;;;;;10.60;10.10;;;;;;;;;;5086575;28;20028;-61
2023/09/09 04:33:57;;;;;;;11.10;10.60;;;;;;;;;;5086994;28;20016;-63
2023/09/09 04:36:23;;;;;;;11.43;10.93;;;;;;;;;;5083082;28;20359;-63
2023/09/09 04:38:48;;;;;;;11.40;10.90;;;;;;;;;;5087660;28;20028;-62
2023/09/09 04:41:14;;;;;;;11.10;10.60;;;;;;;;;;5089089;28;20016;-62
2023/09/09 04:43:39;;;;;;;11.10;10.60;;;;;;;;;;5082216;28;20013;-63
2023/09/09 04:46:04;;;;;;;11.52;11.02;;;;;;;;;;5084477;28;20027;-63
2023/09/09 04:48:30;;;;;;;11.32;10.82;;;;;;;;;;5081023;28;20024;-61
2023/09/09 04:50:56;;;;;;;11.60;11.10;;;;;;;;;;5087270;28;20032;-61
2023/09/09 04:53:21;;;;;;;12.13;11.63;;;;;;;;;;5088211;28;20494;-62
2023/09/09 04:55:47;;;;;;;11.43;10.93;;;;;;;;;;5079075;28;20036;-62
2023/09/09 04:58:13;;;;;;;11.48;10.98;;;;;;;;;;5082062;28;20016;-62
2023/09/09 05:00:38;;;;;;;11.68;11.18;;;;;;;;;;5088912;28;20016;-62
2023/09/09 05:03:04;;;;;;;11.60;11.10;;;;;;;;;;5083224;28;20051;-62
2023/09/09 05:05:29;;;;;;;11.80;11.30;;;;;;;;;;5082161;28;20071;-62
2023/09/09 05:07:55;;;;;;;11.60;11.10;;;;;;;;;;5086269;28;20495;-61
2023/09/09 05:10:21;;;;;;;12.02;11.52;;;;;;;;;;5088989;28;20073;-62
2023/09/09 05:12:47;;;;;;;11.57;11.07;;;;;;;;;;5080060;28;20078;-61
2023/09/09 05:15:13;;;;;;;11.70;11.20;;;;;;;;;;5091824;28;20023;-61
2023/09/09 05:17:38;;;;;;;11.88;11.38;;;;;;;;;;5085189;28;20019;-61
2023/09/09 05:20:04;;;;;;;11.75;11.25;;;;;;;;;;5081971;28;20099;-62
2023/09/09 05:22:29;;;;;;;11.63;11.13;;;;;;;;;;5083307;28;20123;-62
2023/09/09 05:24:55;;;;;;;11.63;11.13;;;;;;;;;;5081671;28;20024;-62
2023/09/09 05:27:21;;;;;;;11.55;11.05;;;;;;;;;;5088872;28;20024;-62
2023/09/09 05:29:46;;;;;;;11.93;11.43;;;;;;;;;;5080701;28;20047;-62
2023/09/09 05:32:12;;;;;;;11.65;11.15;;;;;;;;;;5085159;28;20024;-62
2023/09/09 05:34:37;;;;;;;11.80;11.30;;;;;;;;;;5086645;28;20372;-63
2023/09/09 05:37:02;;;;;;;11.90;11.40;;;;;;;;;;5088725;28;20032;-62
2023/09/09 05:39:28;;;;;;;12.10;11.60;;;;;;;;;;5085655;28;20564;-62
2023/09/09 05:41:53;;;;;;;11.97;11.47;;;;;;;;;;5082466;28;20020;-62
2023/09/09 05:44:18;;;;;;;11.90;11.40;;;;;;;;;;5083151;28;20257;-62
2023/09/09 05:46:44;;;;;;;11.97;11.47;;;;;;;;;;5085236;28;20020;-62
2023/09/09 05:49:09;;;;;;;11.88;11.38;;;;;;;;;;5086067;28;20272;-63
2023/09/09 05:51:34;;;;;;;11.95;11.45;;;;;;;;;;5087622;28;20036;-63
2023/09/09 05:54:00;;;;;;;12.05;11.55;;;;;;;;;;5087125;28;20081;-62
2023/09/09 05:56:26;;;;;;;11.98;11.48;;;;;;;;;;5085084;28;20051;-63
2023/09/09 05:58:52;;;;;;;11.93;11.43;;;;;;;;;;5086683;28;20532;-63
2023/09/09 06:01:17;;;;;;;12.18;11.68;;;;;;;;;;5084242;28;20043;-63
2023/09/09 06:03:43;;;;;;;12.30;11.80;;;;;;;;;;5085057;28;20379;-63
2023/09/09 06:06:08;;;;;;;12.13;11.63;;;;;;;;;;5084513;28;20858;-64
2023/09/09 06:08:33;;;;;;;12.10;11.60;;;;;;;;;;5082407;28;20027;-62
2023/09/09 06:10:59;;;;;;;11.95;11.45;;;;;;;;;;5085734;28;20020;-63
2023/09/09 06:13:24;;;;;;;11.98;11.48;;;;;;;;;;5077001;28;20484;-63
2023/09/09 06:15:49;;;;;;;11.90;11.40;;;;;;;;;;5087633;28;20503;-63
2023/09/09 06:18:15;;;;;;;12.10;11.60;;;;;;;;;;5084197;28;20254;-63
2023/09/09 06:20:45;;;;;;;12.10;11.60;;;;;;;;;;5083666;28;20269;-63
2023/09/09 06:23:11;;;;;;;12.07;11.57;;;;;;;;;;5079354;28;22162;-63
2023/09/09 06:25:36;;;;;;;12.23;11.73;;;;;;;;;;5082082;28;20024;-65
2023/09/09 06:28:01;;;;;;;12.03;11.53;;;;;;;;;;5085266;28;20095;-62
2023/09/09 06:30:26;;;;;;;12.00;11.50;;;;;;;;;;5086811;28;20283;-63
2023/09/09 06:32:52;;;;;;;12.10;11.60;;;;;;;;;;5085705;28;20257;-62
2023/09/09 06:35:17;;;;;;;11.93;11.43;;;;;;;;;;5087750;28;20241;-63
2023/09/09 06:37:42;;;;;;;11.93;11.43;;;;;;;;;;5081934;28;20039;-63
2023/09/09 06:40:08;;;;;;;11.93;11.43;;;;;;;;;;5080679;28;20609;-63
2023/09/09 06:42:33;;;;;;;11.95;11.45;;;;;;;;;;5079387;28;20016;-61
2023/09/09 06:44:59;;;;;;;12.00;11.50;;;;;;;;;;5085217;28;20464;-62
2023/09/09 06:47:24;;;;;;;12.10;11.60;;;;;;;;;;5081561;28;20039;-62
2023/09/09 06:49:50;;;;;;;12.03;11.53;;;;;;;;;;5083277;28;20024;-63
2023/09/09 06:52:16;;;;;;;11.95;11.45;;;;;;;;;;5077672;28;20253;-64
2023/09/09 06:54:43;;;;;;;12.00;11.50;;;;;;;;;;5082330;28;20028;-62
2023/09/09 06:57:09;;;;;;;12.10;11.60;;;;;;;;;;5076527;28;20055;-61
2023/09/09 06:59:35;;;;;;;12.05;11.55;;;;;;;;;;5087274;28;20016;-62
2023/09/09 07:02:02;;;;;;;12.15;11.65;;;;;;;;;;5081704;28;20020;-62
2023/09/09 07:04:27;;;;;;;12.20;11.70;;;;;;;;;;5086478;28;20467;-62
2023/09/09 07:06:52;;;;;;;12.27;11.77;;;;;;;;;;5080024;28;20051;-62
2023/09/09 07:09:20;;;;;;;12.20;11.70;;;;;;;;;;5084725;28;20016;-61
2023/09/09 07:11:45;;;;;;;12.07;11.57;;;;;;;;;;5076244;28;20052;-62
2023/09/09 07:14:10;;;;;;;12.20;11.70;;;;;;;;;;5084782;28;20459;-62
2023/09/09 07:16:36;;;;;;;12.13;11.63;;;;;;;;;;5084887;28;20272;-63
2023/09/09 07:19:01;;;;;;;12.10;11.60;;;;;;;;;;5083388;28;20267;-63
2023/09/09 07:21:26;;;;;;;12.30;11.80;;;;;;;;;;5077843;28;20027;-62
2023/09/09 07:23:52;;;;;;;11.90;11.40;;;;;;;;;;5080184;28;20273;-62
2023/09/09 07:26:18;;;;;;;12.07;11.57;;;;;;;;;;5083545;28;20352;-62
2023/09/09 07:28:43;;;;;;;11.90;11.40;;;;;;;;;;5080652;28;20031;-62
2023/09/09 07:31:08;;;;;;;12.30;11.80;;;;;;;;;;5076458;28;20024;-62
2023/09/09 07:33:34;;;;;;;12.25;11.75;;;;;;;;;;5077337;28;20378;-62
2023/09/09 07:35:59;;;;;;;11.90;11.40;;;;;;;;;;5079232;28;20063;-63
2023/09/09 07:38:24;;;;;;;12.15;11.65;;;;;;;;;;5082553;28;20256;-63
2023/09/09 07:40:57;;;;;;;11.88;11.38;;;;;;;;;;5088097;28;20470;-63
2023/09/09 07:43:22;;;;;;;11.90;11.40;;;;;;;;;;5084539;28;20012;-61
2023/09/09 07:45:48;;;;;;;12.10;11.60;;;;;;;;;;5083581;28;20032;-62
2023/09/09 07:48:13;;;;;;;12.18;11.68;;;;;;;;;;5085805;28;20149;-62
2023/09/09 07:50:38;;;;;;;12.02;11.52;;;;;;;;;;5082119;28;20028;-62
2023/09/09 07:53:04;;;;;;;12.00;11.50;;;;;;;;;;5082243;28;20114;-64
2023/09/09 07:55:29;;;;;;;12.17;11.67;;;;;;;;;;5090138;28;20765;-63
2023/09/09 07:57:54;;;;;;;12.07;11.57;;;;;;;;;;5083535;28;20270;-63
2023/09/09 08:00:20;;;;;;;11.93;11.43;;;;;;;;;;5087514;28;20349;-61
2023/09/09 08:02:45;;;;;;;12.07;11.57;;;;;;;;;;5085552;28;20332;-62
2023/09/09 08:05:11;;;;;;;11.90;11.40;;;;;;;;;;5088782;28;20123;-63
2023/09/09 08:07:36;;;;;;;12.10;11.60;;;;;;;;;;5086071;28;20036;-63
2023/09/09 08:10:02;;;;;;;12.05;11.55;;;;;;;;;;5079662;28;20272;-63
2023/09/09 08:12:27;;;;;;;11.90;11.40;;;;;;;;;;5086491;28;20024;-64
2023/09/09 08:15:03;;;;;;;11.77;11.27;;;;;;;;;;5080821;28;20073;-64
2023/09/09 08:17:28;;;;;;;11.90;11.40;;;;;;;;;;5089583;28;20302;-63
2023/09/09 08:19:53;;;;;;;12.00;11.50;;;;;;;;;;5077224;28;20407;-61
2023/09/09 08:22:18;;;;;;;12.00;11.50;;;;;;;;;;5082955;28;20295;-61
2023/09/09 08:24:44;;;;;;;11.80;11.30;;;;;;;;;;5085909;28;20016;-61
2023/09/09 08:27:09;;;;;;;11.77;11.27;;;;;;;;;;5087592;28;20620;-60
2023/09/09 08:29:34;;;;;;;11.98;11.48;;;;;;;;;;5082487;28;20035;-61
2023/09/09 08:32:00;;;;;;;11.93;11.43;;;;;;;;;;5089256;28;20054;-61
2023/09/09 08:34:25;;;;;;;11.70;11.20;;;;;;;;;;5086185;28;20256;-60
2023/09/09 08:36:50;;;;;;;11.55;11.05;;;;;;;;;;5084611;28;20024;-59
2023/09/09 08:39:16;;;;;;;11.82;11.32;;;;;;;;;;5089889;28;20103;-60
2023/09/09 08:42:00;;;;;;;11.70;11.20;;;;;;;;;;5081535;28;20029;-61
2023/09/09 08:44:25;;;;;;;;;;;;;;;;;;5087081;28;20031;-60
2023/09/09 08:46:52;;;;;;;11.53;11.03;;;;;;;;;;5083580;28;19908;-60
2023/09/09 08:49:20;;;;;;;11.73;11.23;;;;;;;;;;5084524;28;20483;-60
2023/09/09 08:51:53;;;;;;;11.82;11.32;;;;;;;;;;5080983;28;20028;-60
2023/09/09 08:54:19;;;;;;;11.73;11.23;;;;;;;;;;5082794;28;20025;-59
2023/09/09 08:56:44;;;;;;;12.07;11.57;;;;;;;;;;5082276;28;20047;-60
2023/09/09 08:59:10;;;;;;;11.63;11.13;;;;;;;;;;5085435;28;20103;-60
2023/09/09 09:01:36;;;;;;;11.98;11.48;;;;;;;;;;5085513;28;20028;-60
2023/09/09 09:04:01;;;;;;;11.50;11.00;;;;;;;;;;5086393;28;20507;-60
2023/09/09 09:06:27;;;;;;;11.73;11.23;;;;;;;;;;5084701;28;20024;-61
2023/09/09 09:08:52;;;;;;;11.90;11.40;;;;;;;;;;5087595;28;20031;-61
2023/09/09 09:11:19;;;;;;;11.80;11.30;;;;;;;;;;5079272;28;20494;-61
2023/09/09 09:13:47;;;;;;;11.57;11.07;;;;;;;;;;5086714;28;20253;-61
2023/09/09 09:16:13;;;;;;;11.68;11.18;;;;;;;;;;5079190;28;20048;-60
2023/09/09 09:18:38;;;;;;;11.80;11.30;;;;;;;;;;5085347;28;20096;-60
2023/09/09 09:21:08;;;;;;;12.00;11.50;;;;;;;;;;5083917;28;20020;-61
2023/09/09 09:23:34;;;;;;;11.70;11.20;;;;;;;;;;5083646;28;20065;-61
2023/09/09 09:25:59;;;;;;;11.38;10.88;;;;;;;;;;5082833;28;20032;-61
2023/09/09 09:28:27;;;;;;;11.80;11.30;;;;;;;;;;5089367;28;20436;-61
2023/09/09 09:30:53;;;;;;;11.38;10.88;;;;;;;;;;5081738;28;20112;-60
2023/09/09 09:33:22;;;;;;;11.57;11.07;;;;;;;;;;5081540;28;20022;-60
2023/09/09 09:35:48;;;;;;;11.70;11.20;;;;;;;;;;5085700;28;20073;-59
2023/09/09 09:38:14;;;;;;;11.60;11.10;;;;;;;;;;5088118;28;20421;-60
2023/09/09 09:40:40;;;;;;;11.82;11.32;;;;;;;;;;5079224;28;20013;-60
2023/09/09 09:43:16;;;;;;;12.10;11.60;;;;;;;;;;5075342;28;20054;-60
2023/09/09 09:45:41;;;;;;;11.88;11.38;;;;;;;;;;5086494;28;20077;-59
2023/09/09 09:48:07;;;;;;;12.05;11.55;;;;;;;;;;5091275;28;20028;-62
2023/09/09 09:50:32;;;;;;;11.57;11.07;;;;;;;;;;5083147;28;20107;-60
2023/09/09 09:52:59;;;;;;;11.85;11.35;;;;;;;;;;5085965;28;20023;-61
2023/09/09 09:55:25;;;;;;;11.88;11.38;;;;;;;;;;5082076;28;20122;-61
2023/09/09 09:57:52;;;;;;;11.85;11.35;;;;;;;;;;5085361;28;20020;-61
2023/09/09 10:00:18;;;;;;;11.45;10.95;;;;;;;;;;5085946;28;20598;-59
2023/09/09 10:02:44;;;;;;;11.70;11.20;;;;;;;;;;5082145;28;20016;-61
2023/09/09 10:05:12;;;;;;;11.70;11.20;;;;;;;;;;5084809;28;20032;-61
2023/09/09 10:07:40;;;;;;;11.43;10.93;;;;;;;;;;5086628;28;20032;-61
2023/09/09 10:10:09;;;;;;;11.65;11.15;;;;;;;;;;5086108;28;20020;-60
2023/09/09 10:12:42;;;;;;;11.50;11.00;;;;;;;;;;5082453;28;20024;-61
2023/09/09 10:15:08;;;;;;;11.75;11.25;;;;;;;;;;5080262;28;20112;-60
2023/09/09 10:17:34;;;;;;;11.38;10.88;;;;;;;;;;5081273;28;20118;-59
2023/09/09 10:20:00;;;;;;;11.40;10.90;;;;;;;;;;5087297;28;20020;-61
2023/09/09 10:22:26;;;;;;;11.60;11.10;;;;;;;;;;5079133;28;20412;-60
2023/09/09 10:24:52;;;;;;;11.50;11.00;;;;;;;;;;5083892;28;20070;-60
2023/09/09 10:27:19;;;;;;;11.52;11.02;;;;;;;;;;5079902;28;20128;-61
2023/09/09 10:29:45;;;;;;;11.50;11.00;;;;;;;;;;5081583;28;20028;-61
2023/09/09 10:32:12;;;;;;;11.80;11.30;;;;;;;;;;5083640;28;20035;-61
2023/09/09 10:34:39;;;;;;;11.50;11.00;;;;;;;;;;5081402;28;20071;-60
2023/09/09 10:37:06;;;;;;;11.65;11.15;;;;;;;;;;5080985;28;20488;-60
2023/09/09 10:39:32;;;;;;;11.70;11.20;;;;;;;;;;5081294;28;20017;-61
2023/09/09 10:41:58;;;;;;;11.40;10.90;;;;;;;;;;5077643;28;20061;-60
2023/09/09 10:44:23;;;;;;;11.48;10.98;;;;;;;;;;5079567;28;20020;-63
2023/09/09 10:46:52;;;;;;;11.38;10.88;;;;;;;;;;5085658;28;20039;-61
2023/09/09 10:49:22;;;;;;;11.52;11.02;;;;;;;;;;5079024;28;20103;-60
2023/09/09 10:51:49;;;;;;;11.30;10.80;;;;;;;;;;5084059;28;20027;-61
2023/09/09 10:54:15;;;;;;;11.40;10.90;;;;;;;;;;5086902;28;20023;-61
2023/09/09 10:56:46;;;;;;;11.63;11.13;;;;;;;;;;5083638;28;20021;-61
2023/09/09 10:59:30;;;;;;;11.43;10.93;;;;;;;;;;5085441;28;20401;-61
2023/09/09 11:01:55;;;;;;;;;;;;;;;;;;5083820;28;20029;-60
2023/09/09 11:04:22;;;;;;;11.20;10.70;;;;;;;;;;5078366;28;20292;-61
2023/09/09 11:07:14;;;;;;;11.45;10.95;;;;;;;;;;5081022;28;20031;-60
2023/09/09 11:09:49;;;;;;;11.30;10.80;;;;;;;;;;5078484;28;20036;-60
2023/09/09 11:12:15;;;;;;;11.70;11.20;;;;;;;;;;5080535;28;20094;-60
2023/09/09 11:14:43;;;;;;;11.68;11.18;;;;;;;;;;5085363;28;20035;-60
2023/09/09 11:17:09;;;;;;;11.40;10.90;;;;;;;;;;5078434;28;20042;-61
2023/09/09 11:19:36;;;;;;;11.80;11.30;;;;;;;;;;5074750;28;20077;-60
2023/09/09 11:22:02;;;;;;;11.23;10.73;;;;;;;;;;5080133;28;20020;-61
2023/09/09 11:24:28;;;;;;;11.70;11.20;;;;;;;;;;5082340;28;20355;-61
2023/09/09 11:26:55;;;;;;;11.38;10.88;;;;;;;;;;5079476;28;20026;-61
2023/09/09 11:29:21;;;;;;;11.70;11.20;;;;;;;;;;5086890;28;20395;-60
2023/09/09 11:31:48;;;;;;;11.32;10.82;;;;;;;;;;5091595;28;20020;-61
2023/09/09 11:34:14;;;;;;;11.43;10.93;;;;;;;;;;5087815;28;20020;-61
2023/09/09 11:36:41;;;;;;;11.57;11.07;;;;;;;;;;5085890;28;20024;-60
2023/09/09 11:39:07;;;;;;;11.40;10.90;;;;;;;;;;5083768;28;20066;-61
2023/09/09 11:41:32;;;;;;;11.13;10.63;;;;;;;;;;5088596;28;20078;-62
2023/09/09 11:44:04;;;;;;;11.43;10.93;;;;;;;;;;5082188;28;20036;-62
2023/09/09 11:46:38;;;;;;;11.60;11.10;;;;;;;;;;5090157;28;20020;-60
2023/09/09 11:49:04;;;;;;;11.40;10.90;;;;;;;;;;5085716;28;20029;-60
2023/09/09 11:51:30;;;;;;;11.20;10.70;;;;;;;;;;5081726;28;20119;-65
2023/09/09 11:53:55;;;;;;;11.77;11.27;;;;;;;;;;5085493;28;20024;-60
2023/09/09 11:56:20;;;;;;;11.40;10.90;;;;;;;;;;5090386;28;20020;-60
2023/09/09 11:58:46;;;;;;;11.32;10.82;;;;;;;;;;5088177;28;20024;-60
2023/09/09 12:01:12;;;;;;;11.68;11.18;;;;;;;;;;5085763;28;20249;-60
2023/09/09 12:03:37;;;;;;;11.98;11.48;;;;;;;;;;5088394;28;20455;-59
2023/09/09 12:06:03;;;;;;;11.38;10.88;;;;;;;;;;5089776;28;20028;-61
2023/09/09 12:08:30;;;;;;;11.70;11.20;;;;;;;;;;5087616;28;20079;-60
2023/09/09 12:10:56;;;;;;;11.63;11.13;;;;;;;;;;5086083;28;20024;-61
2023/09/09 12:13:22;;;;;;;11.80;11.30;;;;;;;;;;5085853;28;20048;-60
2023/09/09 12:15:47;;;;;;;11.15;10.65;;;;;;;;;;5087354;28;20117;-61
2023/09/09 12:18:13;;;;;;;11.60;11.10;;;;;;;;;;5084270;28;20016;-60
2023/09/09 12:20:57;;;;;;;11.40;10.90;;;;;;;;;;5084522;28;20020;-61
2023/09/09 12:23:29;;;;;;;11.18;10.68;;;;;;;;;;5089318;28;20019;-61
2023/09/09 12:25:55;;;;;;;11.35;10.85;;;;;;;;;;5085709;28;20047;-61
2023/09/09 12:28:20;;;;;;;11.43;10.93;;;;;;;;;;5085420;28;20464;-60
2023/09/09 12:30:46;;;;;;;11.25;10.75;;;;;;;;;;5082209;28;20063;-60
2023/09/09 12:33:12;;;;;;;11.30;10.80;;;;;;;;;;5093673;28;20502;-61
2023/09/09 12:35:45;;;;;;;11.45;10.95;;;;;;;;;;5083440;28;20084;-61
2023/09/09 12:38:10;;;;;;;11.30;10.80;;;;;;;;;;5085702;28;20379;-60
2023/09/09 12:40:45;;;;;;;11.80;11.30;;;;;;;;;;5082715;28;20036;-61
2023/09/09 12:43:11;;;;;;;11.45;10.95;;;;;;;;;;5090070;28;20038;-60
2023/09/09 12:46:12;;;;;;;11.43;10.93;;;;;;;;;;5084908;28;20024;-60
2023/09/09 12:48:51;;;;;;;11.43;10.93;;;;;;;;;;5069116;28;20101;-60
2023/09/09 12:51:16;;;;;;;11.48;10.98;;;;;;;;;;5081281;28;20082;-61
2023/09/09 12:53:42;;;;;;;11.40;10.90;;;;;;;;;;5075634;28;20506;-61
2023/09/09 12:56:07;;;;;;;11.43;10.93;;;;;;;;;;5081113;28;20028;-60
2023/09/09 12:58:32;;;;;;;11.50;11.00;;;;;;;;;;5086670;28;20100;-61
2023/09/09 13:00:58;;;;;;;11.38;10.88;;;;;;;;;;5078427;28;20027;-61
2023/09/09 13:03:23;;;;;;;11.77;11.27;;;;;;;;;;5081790;28;20094;-61
2023/09/09 13:05:49;;;;;;;11.48;10.98;;;;;;;;;;5089166;28;20330;-61
2023/09/09 13:08:14;;;;;;;11.13;10.63;;;;;;;;;;5079402;28;20043;-60
2023/09/09 13:10:39;;;;;;;11.27;10.77;;;;;;;;;;5083849;28;20024;-61
2023/09/09 13:13:05;;;;;;;11.32;10.82;;;;;;;;;;5084009;28;20028;-60
2023/09/09 13:15:30;;;;;;;11.50;11.00;;;;;;;;;;5077855;28;20014;-60
2023/09/09 13:17:55;;;;;;;11.60;11.10;;;;;;;;;;5087911;28;20103;-61
2023/09/09 13:20:21;;;;;;;12.18;11.68;;;;;;;;;;5076040;28;20031;-59
2023/09/09 13:22:46;;;;;;;11.77;11.27;;;;;;;;;;5088926;28;20020;-60
2023/09/09 13:25:11;;;;;;;11.30;10.80;;;;;;;;;;5085581;28;20475;-61
2023/09/09 13:27:37;;;;;;;11.15;10.65;;;;;;;;;;5080467;28;20543;-60
2023/09/09 13:30:03;;;;;;;11.50;11.00;;;;;;;;;;5078139;28;20036;-61
2023/09/09 13:32:29;;;;;;;11.50;11.00;;;;;;;;;;5089810;28;20116;-62
2023/09/09 13:34:54;;;;;;;11.63;11.13;;;;;;;;;;5085335;28;20032;-61
2023/09/09 13:37:19;;;;;;;11.35;10.85;;;;;;;;;;5081065;28;20035;-59
2023/09/09 13:39:45;;;;;;;11.20;10.70;;;;;;;;;;5084709;28;20095;-59
2023/09/09 13:42:10;;;;;;;11.60;11.10;;;;;;;;;;5078308;28;20487;-61
2023/09/09 13:44:35;;;;;;;11.60;11.10;;;;;;;;;;5079119;28;20577;-61
2023/09/09 13:47:00;;;;;;;11.52;11.02;;;;;;;;;;5083585;28;20021;-60
2023/09/09 13:49:26;;;;;;;10.85;10.35;;;;;;;;;;5083006;28;20024;-62
2023/09/09 13:51:51;;;;;;;11.40;10.90;;;;;;;;;;5084021;28;20049;-64
2023/09/09 13:54:16;;;;;;;11.43;10.93;;;;;;;;;;5085989;28;20027;-61
2023/09/09 13:56:42;;;;;;;11.43;10.93;;;;;;;;;;5085101;28;20284;-61
2023/09/09 13:59:07;;;;;;;11.40;10.90;;;;;;;;;;5088482;28;20044;-61
2023/09/09 14:01:32;;;;;;;11.32;10.82;;;;;;;;;;5082569;28;20020;-61
2023/09/09 14:03:58;;;;;;;11.15;10.65;;;;;;;;;;5080317;28;20032;-60
2023/09/09 14:06:24;;;;;;;11.60;11.10;;;;;;;;;;5080323;28;20028;-61
2023/09/09 14:08:51;;;;;;;11.30;10.80;;;;;;;;;;5083437;28;20029;-62
2023/09/09 14:11:16;;;;;;;11.00;10.50;;;;;;;;;;5079791;28;20044;-61
2023/09/09 14:13:41;;;;;;;11.20;10.70;;;;;;;;;;5088303;28;20027;-60